createdAt,value
2024-05-09T00:01:04.713Z,5.70
2024-05-09T00:04:45.084Z,4.70
2024-05-09T00:08:13.836Z,4.40
2024-05-09T00:11:42.764Z,7.90
2024-05-09T00:15:11.476Z,7.50
2024-05-09T00:18:40.277Z,4.80
2024-05-09T00:22:09.086Z,9.30
2024-05-09T00:25:37.594Z,8.30
2024-05-09T00:28:59.509Z,5.00
2024-05-09T00:32:28.428Z,5.50
2024-05-09T00:35:56.969Z,10.10
2024-05-09T00:39:25.489Z,4.80
2024-05-09T00:42:54.071Z,7.00
2024-05-09T00:46:22.598Z,4.70
2024-05-09T00:49:51.240Z,5.70
2024-05-09T00:53:19.866Z,7.10
2024-05-09T00:56:48.821Z,5.60
2024-05-09T01:00:26.511Z,7.50
2024-05-09T01:03:53.513Z,5.10
2024-05-09T01:07:22.111Z,4.90
2024-05-09T01:10:50.792Z,7.00
2024-05-09T01:14:20.242Z,4.60
2024-05-09T01:17:48.858Z,6.40
2024-05-09T01:21:17.891Z,7.30
2024-05-09T01:24:46.647Z,6.10
2024-05-09T01:28:15.271Z,8.60
2024-05-09T01:31:43.860Z,6.30
2024-05-09T01:35:12.428Z,8.60
2024-05-09T01:38:41.426Z,8.70
2024-05-09T01:42:03.602Z,5.80
2024-05-09T01:45:32.195Z,5.20
2024-05-09T01:49:00.837Z,5.80
2024-05-09T01:52:29.653Z,5.60
2024-05-09T01:55:58.732Z,5.50
2024-05-09T01:59:26.355Z,6.00
2024-05-09T02:02:55.233Z,4.70
2024-05-09T02:06:27.486Z,5.20
2024-05-09T02:09:56.174Z,5.70
2024-05-09T02:13:25.076Z,5.90
2024-05-09T02:16:53.773Z,6.60
2024-05-09T02:20:30.633Z,6.80
2024-05-09T02:24:04.707Z,4.80
2024-05-09T02:27:33.307Z,5.10
2024-05-09T02:31:02.044Z,4.90
2024-05-09T02:34:30.865Z,5.30
2024-05-09T02:37:59.767Z,5.70
2024-05-09T02:41:29.759Z,5.80
2024-05-09T02:44:58.200Z,7.70
2024-05-09T02:48:26.955Z,6.60
2024-05-09T02:51:55.693Z,8.10
2024-05-09T02:55:24.286Z,7.40
2024-05-09T02:58:44.000Z,7.70
2024-05-09T03:02:12.913Z,6.60
2024-05-09T03:05:42.104Z,5.60
2024-05-09T03:09:11.271Z,9.10
2024-05-09T03:12:39.918Z,10.10
2024-05-09T03:16:01.228Z,6.10
2024-05-09T03:19:30.083Z,7.00
2024-05-09T03:22:58.591Z,7.50
2024-05-09T03:26:27.318Z,5.90
2024-05-09T03:29:56.066Z,6.40
2024-05-09T03:33:19.367Z,7.20
2024-05-09T03:36:49.540Z,8.00
2024-05-09T03:40:23.492Z,7.60
2024-05-09T03:43:55.111Z,7.00
2024-05-09T03:47:23.763Z,6.90
2024-05-09T03:50:36.318Z,6.10
2024-05-09T03:54:06.052Z,8.30
2024-05-09T03:57:34.838Z,6.20
2024-05-09T04:01:03.599Z,5.80
2024-05-09T04:04:32.345Z,6.00
2024-05-09T04:08:01.080Z,7.40
2024-05-09T04:11:29.969Z,6.70
2024-05-09T04:14:58.478Z,7.30
2024-05-09T04:18:26.962Z,7.10
2024-05-09T04:21:55.477Z,8.70
2024-05-09T04:25:17.197Z,9.70
2024-05-09T04:28:39.476Z,8.70
2024-05-09T04:32:08.081Z,8.50
2024-05-09T04:35:36.913Z,10.20
2024-05-09T04:39:07.288Z,8.20
2024-05-09T04:42:35.855Z,7.60
2024-05-09T04:46:03.262Z,10.80
2024-05-09T04:49:32.060Z,10.20
2024-05-09T04:53:00.734Z,7.80
2024-05-09T04:56:29.619Z,9.90
2024-05-09T04:59:58.245Z,12.20
2024-05-09T05:03:26.796Z,14.00
2024-05-09T05:06:56.016Z,8.90
2024-05-09T05:10:33.216Z,4.60
2024-05-09T05:14:04.687Z,9.30
2024-05-09T05:17:33.762Z,7.50
2024-05-09T05:21:02.650Z,8.10
2024-05-09T05:24:24.108Z,10.90
2024-05-09T05:30:53.722Z,6.90
2024-05-09T05:34:13.191Z,7.50
2024-05-09T05:37:41.929Z,7.40
2024-05-09T05:41:00.866Z,8.40
2024-05-09T05:44:29.960Z,4.00
2024-05-09T05:47:58.715Z,7.80
2024-05-09T05:51:27.373Z,4.50
2024-05-09T05:54:55.976Z,6.10
2024-05-09T05:58:24.822Z,6.10
2024-05-09T06:01:53.491Z,8.40
2024-05-09T06:05:15.186Z,5.90
2024-05-09T06:08:34.011Z,5.20
2024-05-09T06:12:02.857Z,5.00
2024-05-09T06:15:31.528Z,4.50
2024-05-09T06:19:02.690Z,5.80
2024-05-09T06:22:31.495Z,4.30
2024-05-09T06:26:00.450Z,4.00
2024-05-09T06:29:29.971Z,4.40
2024-05-09T06:32:58.872Z,4.10
2024-05-09T06:36:27.875Z,7.90
2024-05-09T06:39:56.913Z,5.00
2024-05-09T06:43:25.730Z,8.10
2024-05-09T06:46:55.760Z,5.50
2024-05-09T06:50:28.634Z,4.40
2024-05-09T06:54:04.500Z,4.80
2024-05-09T06:57:33.042Z,5.00
2024-05-09T07:01:01.684Z,4.20
2024-05-09T07:04:30.289Z,4.20
2024-05-09T07:07:59.109Z,3.90
2024-05-09T07:11:27.837Z,5.00
2024-05-09T07:14:56.655Z,4.20
2024-05-09T07:18:19.008Z,5.70
2024-05-09T07:21:51.057Z,3.70
2024-05-09T07:25:19.678Z,5.50
2024-05-09T07:28:48.466Z,3.60
2024-05-09T07:32:17.481Z,5.20
2024-05-09T07:35:39.158Z,6.10
2024-05-09T07:39:07.911Z,4.90
2024-05-09T07:42:35.068Z,4.80
2024-05-09T07:47:03.870Z,4.30
2024-05-09T07:51:32.823Z,5.70
2024-05-09T07:53:45.189Z,4.40
2024-05-09T07:57:17.011Z,5.20
2024-05-09T08:00:45.979Z,3.50
2024-05-09T08:04:15.143Z,4.00
2024-05-09T08:07:42.810Z,3.30
2024-05-09T08:11:11.604Z,6.30
2024-05-09T08:14:40.378Z,2.90
2024-05-09T08:18:09.031Z,4.40
2024-05-09T08:21:37.927Z,5.90
2024-05-09T08:25:07.199Z,3.50
2024-05-09T08:28:36.296Z,2.90
2024-05-09T08:32:04.935Z,4.90
2024-05-09T08:35:33.481Z,4.00
2024-05-09T08:39:02.350Z,7.70
2024-05-09T08:42:31.130Z,7.00
2024-05-09T08:46:00.023Z,3.30
2024-05-09T08:49:28.673Z,4.50
2024-05-09T08:52:57.590Z,3.90
2024-05-09T08:56:28.663Z,4.20
2024-05-09T08:59:57.328Z,3.80
2024-05-09T09:03:26.133Z,5.00
2024-05-09T09:07:02.286Z,5.40
2024-05-09T09:10:33.134Z,3.50
2024-05-09T09:14:02.326Z,10.10
2024-05-09T09:17:33.751Z,2.70
2024-05-09T09:21:02.602Z,5.60
2024-05-09T09:24:31.141Z,3.90
2024-05-09T09:27:59.807Z,6.70
2024-05-09T09:31:27.339Z,3.90
2024-05-09T09:34:56.077Z,4.30
2024-05-09T09:38:25.055Z,4.90
2024-05-09T09:41:53.740Z,7.10
2024-05-09T09:45:22.380Z,5.60
2024-05-09T09:48:51.265Z,4.80
2024-05-09T09:52:20.144Z,8.60
2024-05-09T09:55:48.845Z,5.10
2024-05-09T09:59:17.421Z,4.10
2024-05-09T10:02:45.976Z,3.60
2024-05-09T10:06:14.517Z,5.20
2024-05-09T10:09:44.184Z,5.80
2024-05-09T10:13:13.078Z,4.80
2024-05-09T10:16:47.824Z,4.30
2024-05-09T10:20:28.255Z,4.30
2024-05-09T10:24:06.618Z,4.10
2024-05-09T10:27:38.233Z,5.00
2024-05-09T10:31:07.284Z,5.00
2024-05-09T10:34:39.585Z,4.60
2024-05-09T10:38:08.059Z,5.50
2024-05-09T10:41:39.088Z,5.30
2024-05-09T10:45:13.358Z,6.60
2024-05-09T10:48:42.201Z,5.70
2024-05-09T10:52:10.730Z,4.40
2024-05-09T10:55:39.698Z,3.90
2024-05-09T10:59:08.337Z,3.40
2024-05-09T11:02:37.085Z,5.20
2024-05-09T11:06:06.340Z,3.90
2024-05-09T11:09:35.037Z,4.40
2024-05-09T11:13:03.724Z,3.30
2024-05-09T11:16:41.674Z,5.40
2024-05-09T11:20:19.630Z,5.70
2024-05-09T11:23:55.544Z,3.60
2024-05-09T11:27:24.088Z,6.30
2024-05-09T11:30:58.496Z,9.00
2024-05-09T11:34:41.542Z,3.40
2024-05-09T11:38:10.224Z,5.20
2024-05-09T11:41:37.836Z,5.20
2024-05-09T11:45:06.783Z,5.00
2024-05-09T11:48:35.614Z,3.90
2024-05-09T11:52:04.425Z,9.50
2024-05-09T11:55:28.151Z,5.00
2024-05-09T11:58:49.827Z,8.90
2024-05-09T12:02:18.385Z,5.60
2024-05-09T12:05:47.333Z,6.40
2024-05-09T12:09:16.141Z,4.20
2024-05-09T12:12:45.176Z,11.70
2024-05-09T12:16:14.066Z,4.80
2024-05-09T12:19:43.398Z,7.20
2024-05-09T12:23:12.274Z,5.10
2024-05-09T12:26:40.880Z,5.80
2024-05-09T12:30:11.548Z,3.80
2024-05-09T12:33:43.092Z,4.90
2024-05-09T12:37:11.592Z,5.50
2024-05-09T12:40:40.255Z,3.90
2024-05-09T12:44:10.119Z,4.30
2024-05-09T12:47:38.626Z,5.40
2024-05-09T12:51:00.072Z,4.50
2024-05-09T12:54:21.397Z,4.50
2024-05-09T12:57:50.230Z,3.30
2024-05-09T13:01:18.815Z,3.70
2024-05-09T13:04:47.611Z,3.50
2024-05-09T13:08:16.299Z,5.50
2024-05-09T13:11:44.865Z,4.10
2024-05-09T13:15:13.616Z,4.10
2024-05-09T13:18:42.209Z,5.20
2024-05-09T13:22:10.801Z,3.40
2024-05-09T13:25:39.302Z,4.10
2024-05-09T13:29:07.848Z,6.30
2024-05-09T13:32:28.929Z,4.20
2024-05-09T13:35:57.658Z,4.00
2024-05-09T13:39:26.248Z,4.60
2024-05-09T13:42:48.871Z,6.20
2024-05-09T13:46:18.525Z,6.50
2024-05-09T13:49:41.285Z,8.20
2024-05-09T13:53:09.884Z,5.10
2024-05-09T13:56:38.544Z,11.90
2024-05-09T14:00:09.632Z,3.60
2024-05-09T14:03:40.988Z,4.20
2024-05-09T14:07:09.786Z,5.20
2024-05-09T14:10:39.426Z,3.90
2024-05-09T14:14:08.057Z,5.30
2024-05-09T14:17:36.800Z,5.70
2024-05-09T14:21:04.803Z,3.30
2024-05-09T14:24:18.495Z,3.00
2024-05-09T14:27:47.468Z,2.80
2024-05-09T14:31:16.067Z,4.70
2024-05-09T14:34:44.806Z,5.40
2024-05-09T14:38:13.648Z,4.80
2024-05-09T14:41:42.130Z,5.70
2024-05-09T14:45:00.779Z,6.20
2024-05-09T14:48:29.491Z,7.70
2024-05-09T14:51:58.687Z,3.50
2024-05-09T14:55:27.553Z,3.80
2024-05-09T14:58:56.450Z,4.40
2024-05-09T15:02:25.188Z,3.20
2024-05-09T15:05:53.972Z,3.20
2024-05-09T15:09:22.755Z,3.20
2024-05-09T15:12:51.358Z,3.20
2024-05-09T15:16:20.055Z,6.20
2024-05-09T15:19:51.028Z,2.30
2024-05-09T15:23:19.854Z,3.00
2024-05-09T15:26:48.330Z,3.20
2024-05-09T15:30:10.815Z,3.20
2024-05-09T15:33:39.645Z,4.00
2024-05-09T15:37:09.042Z,5.90
2024-05-09T15:40:40.259Z,3.80
2024-05-09T15:44:10.513Z,5.00
2024-05-09T15:47:39.927Z,4.40
2024-05-09T15:51:09.017Z,4.40
2024-05-09T15:54:37.529Z,5.50
2024-05-09T15:58:07.132Z,2.90
2024-05-09T16:01:28.944Z,3.10
2024-05-09T16:04:51.993Z,3.90
2024-05-09T16:08:20.771Z,3.40
2024-05-09T16:11:49.355Z,2.90
2024-05-09T16:15:17.991Z,2.90
2024-05-09T16:18:46.690Z,3.50
2024-05-09T16:22:15.543Z,3.00
2024-05-09T16:25:44.361Z,2.60
2024-05-09T16:29:12.918Z,2.50
2024-05-09T16:32:41.662Z,5.10
2024-05-09T16:36:10.394Z,3.10
2024-05-09T16:39:39.150Z,6.90
2024-05-09T16:43:07.531Z,2.90
2024-05-09T16:46:36.772Z,8.30
2024-05-09T16:50:08.385Z,3.30
2024-05-09T16:53:36.106Z,4.00
2024-05-09T16:57:04.615Z,6.90
2024-05-09T17:00:40.446Z,4.10
2024-05-09T17:04:12.352Z,5.30
2024-05-09T17:07:41.162Z,4.90
2024-05-09T17:11:09.811Z,7.10
2024-05-09T17:14:38.410Z,6.50
2024-05-09T17:18:07.410Z,6.20
2024-05-09T17:21:38.827Z,4.70
2024-05-09T17:25:07.529Z,4.70
2024-05-09T17:28:36.104Z,4.00
2024-05-09T17:32:04.678Z,3.80
2024-05-09T17:35:33.192Z,5.80
2024-05-09T17:38:54.794Z,3.30
2024-05-09T17:42:25.879Z,4.50
2024-05-09T17:45:54.760Z,4.70
2024-05-09T17:49:23.419Z,14.40
2024-05-09T17:52:52.256Z,5.50
2024-05-09T17:56:22.017Z,4.40
2024-05-09T17:59:50.968Z,8.30
2024-05-09T18:03:21.772Z,7.60
2024-05-09T18:06:51.581Z,3.30
2024-05-09T18:10:10.132Z,5.00
2024-05-09T18:17:10.754Z,3.90
2024-05-09T18:20:44.020Z,5.00
2024-05-09T18:24:14.622Z,11.40
2024-05-09T18:27:42.927Z,9.50
2024-05-09T18:31:11.528Z,8.90
2024-05-09T18:34:40.113Z,11.50
2024-05-09T18:38:08.693Z,9.30
2024-05-09T18:41:37.515Z,7.30
2024-05-09T18:45:06.174Z,9.80
2024-05-09T18:48:34.892Z,8.30
2024-05-09T18:52:03.907Z,14.40
2024-05-09T18:55:32.883Z,9.00
2024-05-09T18:58:56.480Z,14.00
2024-05-09T19:02:25.136Z,11.60
2024-05-09T19:05:54.222Z,17.30
2024-05-09T19:09:23.085Z,14.50
2024-05-09T19:12:51.693Z,15.00
2024-05-09T19:16:10.513Z,12.30
2024-05-09T19:19:39.235Z,15.40
2024-05-09T19:23:07.816Z,13.00
2024-05-09T19:26:36.481Z,10.50
2024-05-09T19:30:11.876Z,10.30
2024-05-09T19:33:45.733Z,12.00
2024-05-09T19:37:15.314Z,16.30
2024-05-09T19:40:43.998Z,14.90
2024-05-09T19:44:12.788Z,10.80
2024-05-09T19:47:41.388Z,16.30
2024-05-09T19:51:09.931Z,16.70
2024-05-09T19:54:38.475Z,8.90
2024-05-09T19:58:07.926Z,7.60
2024-05-09T20:01:36.938Z,11.90
2024-05-09T20:05:06.879Z,10.10
2024-05-09T20:08:36.560Z,12.50
2024-05-09T20:12:05.127Z,12.50
2024-05-09T20:15:34.026Z,15.30
2024-05-09T20:19:03.159Z,11.80
2024-05-09T20:22:31.789Z,8.70
2024-05-09T20:26:00.436Z,11.70
2024-05-09T20:29:28.689Z,26.00
2024-05-09T20:32:57.280Z,8.60
2024-05-09T20:36:25.825Z,8.80
2024-05-09T20:39:54.445Z,10.10
2024-05-09T20:43:23.111Z,8.80
2024-05-09T20:46:44.898Z,7.40
2024-05-09T20:50:23.047Z,10.40
2024-05-09T20:53:46.943Z,9.30
2024-05-09T20:57:15.435Z,8.30
2024-05-09T21:00:45.756Z,11.10
2024-05-09T21:04:16.156Z,7.20
2024-05-09T21:07:44.924Z,14.90
2024-05-09T21:11:12.343Z,9.60
2024-05-09T21:14:40.830Z,9.10
2024-05-09T21:18:01.940Z,10.20
2024-05-09T21:21:31.625Z,9.50
2024-05-09T21:25:00.604Z,11.10
2024-05-09T21:28:28.180Z,11.60
2024-05-09T21:35:05.083Z,11.60
2024-05-09T21:38:33.604Z,15.90
2024-05-09T21:42:02.184Z,9.50
2024-05-09T21:45:31.049Z,16.10
2024-05-09T21:49:00.010Z,11.30
2024-05-09T21:52:28.547Z,13.30
2024-05-09T21:55:57.160Z,16.90
2024-05-09T21:59:25.644Z,10.40
2024-05-09T22:02:52.522Z,9.90
2024-05-09T22:06:21.143Z,11.60
2024-05-09T22:09:49.850Z,15.10
2024-05-09T22:13:18.522Z,15.70
2024-05-09T22:16:47.491Z,15.40
2024-05-09T22:20:22.262Z,13.30
2024-05-09T22:23:57.715Z,11.50
2024-05-09T22:27:26.133Z,11.00
2024-05-09T22:30:54.639Z,18.70
2024-05-09T22:34:23.464Z,11.40
2024-05-09T22:37:52.215Z,15.10
2024-05-09T22:41:20.796Z,12.30
2024-05-09T22:44:49.342Z,14.70
2024-05-09T22:48:18.163Z,11.70
2024-05-09T22:51:47.140Z,11.50
2024-05-09T22:55:16.055Z,11.60
2024-05-09T22:58:44.747Z,13.90
2024-05-09T23:02:16.037Z,12.60
2024-05-09T23:05:44.677Z,11.80
2024-05-09T23:09:13.386Z,18.50
2024-05-09T23:12:44.891Z,12.10
2024-05-09T23:16:13.591Z,12.30
2024-05-09T23:19:42.428Z,19.00
2024-05-09T23:23:12.090Z,20.00
2024-05-09T23:26:41.069Z,13.30
2024-05-09T23:30:02.661Z,13.40
2024-05-09T23:33:32.779Z,16.00
2024-05-09T23:37:01.629Z,12.90
2024-05-09T23:40:38.413Z,13.30
2024-05-09T23:44:09.859Z,12.40
2024-05-09T23:47:38.725Z,11.90
2024-05-09T23:51:07.397Z,10.30
2024-05-09T23:54:36.125Z,13.30
2024-05-09T23:58:05.183Z,11.60
